NFFNSAWH

Guest
Details From NFFN - Nadi Intl
To SAWH - Ushuaia_intl_islas Malvinas
Flight Number -
Tags Generated
Created
Modified
Stats Distance 5,322 nm / 9,857 km
Max Altitude 0 ft / 0 m
Waypoints 3
Social Downloads 1
Likes 0
Share VATSIM

Download

Looking for another format? Having issues loading an existing format? Contact us
Advertisement - Login to hide

Notes

Generated

Route

NFFN USU23 SAWH

ID Type Via Altitude Latitude Longitude Leg Dist Tot Dist Heading (true) Name
O NFFN APT - 0 ft / 0 m -17.75352˚ 177.43591˚ - 0 nm - -
USU23 FIX - 0 ft / 0 m -54.96132˚ -68.72623˚ 5306 nm 5306 nm 148° / 61° -
O SAWH APT - 0 ft / 0 m -54.84420˚ -68.31752˚ 15 nm 5322 nm 64° / 63° -

Altitude Profile

Advertisement - Login to hide

Weather


0- 5 10 15 20 25 30 35+ Temperature / ° C

Clouds and Precipitation
Forecast for 2018-05-23 12:00 UTC. Updated 4 hours ago

Ground ~20,000 ft ~40,000 ft Winds

NFFN

Details ICAO NFFN (NAN)
Name Nadi Intl
Region Fiji and Tonga
Timezone Pacific/Fiji (UTC+12.0)
Stats Elevation 59 ft / 18 m (AMSL)
Location -17.758366° 177.442147°
Runways 2
Magnetic Variation 12.418° E

METAR

NFFN 231500Z 12003KT 9999 FEW030 SCT050 23/22 Q1011 NOSIG

Decode

TAF

TAF NFFN 231114Z 2312/2412 VRB03KT 9999 SCT025 BECMG 2321/2323 26010KT PROB30 TEMPO 2402/2406 5000 SHRA BKN017 BECMG 2404/2406 08005KT

Decode

Departure Runways

ID Width Length Bearing (true) Bearing (mag) Surface Threshold Offset Overrun Length
02 151 ft / 46 m 10,529 ft / 3,209 m 37.50° 25.08° Asphalt 0 ft / 0 m 0 ft / 0 m
09 151 ft / 46 m 6,989 ft / 2,130 m 104.20° 91.78° Asphalt 0 ft / 0 m 95 ft / 29 m
20 151 ft / 46 m 10,529 ft / 3,209 m 217.50° 205.08° Asphalt 0 ft / 0 m 0 ft / 0 m
27 151 ft / 46 m 6,989 ft / 2,130 m 284.20° 271.78° Asphalt 0 ft / 0 m 0 ft / 0 m

SAWH

Details ICAO SAWH (USH)
Name Ushuaia_Intl_Islas Malvinas
Region Argentina
Timezone America/Argentina/Ushuaia (UTC-3.0)
Stats Elevation 91 ft / 28 m (AMSL)
Location -54.843310° -68.294897°
Runways 1
Magnetic Variation 12.376° E

METAR

SAWH 231500Z 36006KT 9999 BKN045 SCT100 03/M02 Q1011

Decode

TAF

TAF SAWH 231100Z 2312/2412 25012KT 9999 SCT030 SCT040 TX08/2319Z TN01/2312Z BECMG 2320/2322 34010KT BKN020 BKN040 BECMG 2406/2408 -RA BKN030 BKN050

Decode

Destination Runways

ID Width Length Bearing (true) Bearing (mag) Surface Threshold Offset Overrun Length
07 148 ft / 45 m 9,531 ft / 2,905 m 86.11° 73.73° Concrete 591 ft / 180 m 295 ft / 90 m
25 148 ft / 45 m 9,531 ft / 2,905 m 266.08° 253.70° Concrete 899 ft / 274 m 98 ft / 30 m

Approach Navaids

Runway Type Ident Frequency Range Bearing (true) Bearing (mag) Slope Elevation
25 Localiser US 111.30 MHz 18 nm / 33 km 266.19° 253.81° - 54 ft / 16 m (AMSL)
25 Glidescope US 111.30 MHz 10 nm / 19 km 266.10° 253.72° 3.50° 91 ft / 28 m (AMSL)
25 DME US 111.30 MHz 18 nm / 33 km - - - 92 ft / 28 m (AMSL)